sensor_id;sensor_type;location;lat;lon;timestamp;P1;durP1;ratioP1;P2;durP2;ratioP2
57107;SDS011;42987;52.916;6.542;2024-03-23T00:55:51;40.67;;;9.88;;
57107;SDS011;42987;52.916;6.542;2024-03-23T00:58:17;42.67;;;10.10;;
57107;SDS011;42987;52.916;6.542;2024-03-23T01:00:43;26.90;;;9.25;;
57107;SDS011;42987;52.916;6.542;2024-03-23T01:03:09;41.92;;;9.43;;
57107;SDS011;42987;52.916;6.542;2024-03-23T01:05:35;26.23;;;8.52;;
57107;SDS011;42987;52.916;6.542;2024-03-23T01:08:00;40.20;;;9.77;;
57107;SDS011;42987;52.916;6.542;2024-03-23T01:10:27;38.85;;;9.77;;
57107;SDS011;42987;52.916;6.542;2024-03-23T01:12:53;28.25;;;8.68;;
57107;SDS011;42987;52.916;6.542;2024-03-23T01:15:18;24.83;;;7.70;;
57107;SDS011;42987;52.916;6.542;2024-03-23T01:17:44;35.92;;;9.35;;
57107;SDS011;42987;52.916;6.542;2024-03-23T01:20:10;31.35;;;8.15;;
57107;SDS011;42987;52.916;6.542;2024-03-23T01:22:36;20.25;;;7.03;;
57107;SDS011;42987;52.916;6.542;2024-03-23T01:25:02;23.67;;;7.38;;
57107;SDS011;42987;52.916;6.542;2024-03-23T01:27:28;25.23;;;7.28;;
57107;SDS011;42987;52.916;6.542;2024-03-23T01:29:54;19.27;;;6.85;;
57107;SDS011;42987;52.916;6.542;2024-03-23T01:32:20;33.13;;;8.45;;
57107;SDS011;42987;52.916;6.542;2024-03-23T01:34:45;29.48;;;7.75;;
57107;SDS011;42987;52.916;6.542;2024-03-23T01:37:11;25.15;;;7.85;;
57107;SDS011;42987;52.916;6.542;2024-03-23T01:39:40;30.08;;;8.65;;
57107;SDS011;42987;52.916;6.542;2024-03-23T01:42:06;27.75;;;8.30;;
57107;SDS011;42987;52.916;6.542;2024-03-23T01:44:31;33.95;;;8.05;;
57107;SDS011;42987;52.916;6.542;2024-03-23T01:46:57;37.38;;;9.55;;
57107;SDS011;42987;52.916;6.542;2024-03-23T01:49:23;18.92;;;6.88;;
57107;SDS011;42987;52.916;6.542;2024-03-23T01:51:49;23.05;;;7.40;;
57107;SDS011;42987;52.916;6.542;2024-03-23T01:54:15;19.23;;;6.40;;
57107;SDS011;42987;52.916;6.542;2024-03-23T01:56:41;21.83;;;6.25;;
57107;SDS011;42987;52.916;6.542;2024-03-23T01:59:07;25.38;;;6.57;;
57107;SDS011;42987;52.916;6.542;2024-03-23T02:01:36;21.67;;;6.57;;
57107;SDS011;42987;52.916;6.542;2024-03-23T02:04:05;24.67;;;7.28;;
57107;SDS011;42987;52.916;6.542;2024-03-23T02:06:31;20.40;;;6.97;;
57107;SDS011;42987;52.916;6.542;2024-03-23T02:08:56;17.40;;;6.13;;
57107;SDS011;42987;52.916;6.542;2024-03-23T02:11:23;19.83;;;5.97;;
57107;SDS011;42987;52.916;6.542;2024-03-23T02:13:49;20.83;;;6.00;;
57107;SDS011;42987;52.916;6.542;2024-03-23T02:16:14;19.23;;;6.55;;
57107;SDS011;42987;52.916;6.542;2024-03-23T02:18:40;26.55;;;7.78;;
57107;SDS011;42987;52.916;6.542;2024-03-23T02:21:06;19.50;;;6.53;;
57107;SDS011;42987;52.916;6.542;2024-03-23T02:23:33;25.10;;;6.90;;
57107;SDS011;42987;52.916;6.542;2024-03-23T02:25:58;18.70;;;6.35;;
57107;SDS011;42987;52.916;6.542;2024-03-23T02:28:24;16.77;;;5.63;;
57107;SDS011;42987;52.916;6.542;2024-03-23T02:30:50;26.15;;;6.22;;
57107;SDS011;42987;52.916;6.542;2024-03-23T02:33:16;25.00;;;6.72;;
57107;SDS011;42987;52.916;6.542;2024-03-23T02:35:42;22.52;;;7.93;;
57107;SDS011;42987;52.916;6.542;2024-03-23T02:38:09;23.40;;;6.88;;
57107;SDS011;42987;52.916;6.542;2024-03-23T02:40:34;19.98;;;6.57;;
57107;SDS011;42987;52.916;6.542;2024-03-23T02:43:02;20.90;;;6.93;;
57107;SDS011;42987;52.916;6.542;2024-03-23T02:45:28;20.67;;;6.38;;
57107;SDS011;42987;52.916;6.542;2024-03-23T02:47:54;23.15;;;6.90;;
57107;SDS011;42987;52.916;6.542;2024-03-23T02:50:20;23.15;;;6.22;;
57107;SDS011;42987;52.916;6.542;2024-03-23T02:52:46;24.38;;;6.90;;
57107;SDS011;42987;52.916;6.542;2024-03-23T02:55:13;26.10;;;7.38;;
57107;SDS011;42987;52.916;6.542;2024-03-23T02:57:39;18.33;;;6.57;;
57107;SDS011;42987;52.916;6.542;2024-03-23T03:00:05;21.10;;;6.03;;
57107;SDS011;42987;52.916;6.542;2024-03-23T03:02:35;19.40;;;6.28;;
57107;SDS011;42987;52.916;6.542;2024-03-23T03:05:01;21.20;;;6.75;;
57107;SDS011;42987;52.916;6.542;2024-03-23T03:07:27;25.45;;;7.40;;
57107;SDS011;42987;52.916;6.542;2024-03-23T03:09:53;27.00;;;7.57;;
57107;SDS011;42987;52.916;6.542;2024-03-23T03:12:19;23.20;;;7.13;;
57107;SDS011;42987;52.916;6.542;2024-03-23T03:14:45;22.08;;;7.05;;
57107;SDS011;42987;52.916;6.542;2024-03-23T03:17:11;22.05;;;7.72;;
57107;SDS011;42987;52.916;6.542;2024-03-23T03:19:36;20.30;;;6.38;;
57107;SDS011;42987;52.916;6.542;2024-03-23T03:22:02;20.30;;;6.35;;
57107;SDS011;42987;52.916;6.542;2024-03-23T03:24:29;18.90;;;6.80;;
57107;SDS011;42987;52.916;6.542;2024-03-23T03:26:55;19.42;;;5.68;;
57107;SDS011;42987;52.916;6.542;2024-03-23T03:29:21;17.55;;;5.55;;
57107;SDS011;42987;52.916;6.542;2024-03-23T03:31:47;21.40;;;6.45;;
57107;SDS011;42987;52.916;6.542;2024-03-23T03:34:13;21.20;;;6.90;;
57107;SDS011;42987;52.916;6.542;2024-03-23T03:36:41;21.05;;;6.15;;
57107;SDS011;42987;52.916;6.542;2024-03-23T03:39:07;18.48;;;6.63;;
57107;SDS011;42987;52.916;6.542;2024-03-23T03:41:33;19.55;;;6.43;;
57107;SDS011;42987;52.916;6.542;2024-03-23T03:43:59;21.13;;;6.68;;
57107;SDS011;42987;52.916;6.542;2024-03-23T03:46:30;19.27;;;6.63;;
57107;SDS011;42987;52.916;6.542;2024-03-23T03:48:56;22.65;;;6.78;;
57107;SDS011;42987;52.916;6.542;2024-03-23T03:51:22;25.25;;;7.32;;
57107;SDS011;42987;52.916;6.542;2024-03-23T03:53:47;21.40;;;6.53;;
57107;SDS011;42987;52.916;6.542;2024-03-23T03:56:13;16.98;;;5.68;;
57107;SDS011;42987;52.916;6.542;2024-03-23T03:58:39;19.45;;;6.05;;
57107;SDS011;42987;52.916;6.542;2024-03-23T04:01:05;19.85;;;6.05;;
57107;SDS011;42987;52.916;6.542;2024-03-23T04:03:31;18.70;;;6.60;;
57107;SDS011;42987;52.916;6.542;2024-03-23T04:05:57;21.58;;;6.53;;
57107;SDS011;42987;52.916;6.542;2024-03-23T04:08:23;19.65;;;5.88;;
57107;SDS011;42987;52.916;6.542;2024-03-23T04:10:49;13.60;;;5.60;;
57107;SDS011;42987;52.916;6.542;2024-03-23T04:13:15;13.13;;;5.50;;
57107;SDS011;42987;52.916;6.542;2024-03-23T04:15:41;16.90;;;5.22;;
57107;SDS011;42987;52.916;6.542;2024-03-23T04:18:10;17.90;;;5.38;;
57107;SDS011;42987;52.916;6.542;2024-03-23T04:20:36;21.35;;;6.88;;
57107;SDS011;42987;52.916;6.542;2024-03-23T04:23:02;15.88;;;6.00;;
57107;SDS011;42987;52.916;6.542;2024-03-23T04:25:28;17.27;;;6.35;;
57107;SDS011;42987;52.916;6.542;2024-03-23T04:27:54;18.15;;;5.95;;
57107;SDS011;42987;52.916;6.542;2024-03-23T04:30:20;17.77;;;5.75;;
57107;SDS011;42987;52.916;6.542;2024-03-23T04:32:46;18.92;;;6.50;;
57107;SDS011;42987;52.916;6.542;2024-03-23T04:35:12;18.75;;;6.38;;
57107;SDS011;42987;52.916;6.542;2024-03-23T04:37:38;17.25;;;6.20;;
57107;SDS011;42987;52.916;6.542;2024-03-23T04:40:08;16.47;;;6.37;;
57107;SDS011;42987;52.916;6.542;2024-03-23T04:42:34;19.13;;;6.18;;
57107;SDS011;42987;52.916;6.542;2024-03-23T04:45:00;18.33;;;6.53;;
57107;SDS011;42987;52.916;6.542;2024-03-23T04:47:26;20.63;;;6.60;;
57107;SDS011;42987;52.916;6.542;2024-03-23T04:49:52;22.52;;;6.70;;
57107;SDS011;42987;52.916;6.542;2024-03-23T04:52:18;18.42;;;6.15;;
57107;SDS011;42987;52.916;6.542;2024-03-23T04:54:44;12.60;;;5.97;;
57107;SDS011;42987;52.916;6.542;2024-03-23T04:57:10;21.05;;;6.63;;
57107;SDS011;42987;52.916;6.542;2024-03-23T04:59:36;16.90;;;6.65;;
57107;SDS011;42987;52.916;6.542;2024-03-23T05:02:02;16.02;;;6.43;;
57107;SDS011;42987;52.916;6.542;2024-03-23T05:04:28;19.10;;;6.00;;
57107;SDS011;42987;52.916;6.542;2024-03-23T05:06:54;16.45;;;5.65;;
57107;SDS011;42987;52.916;6.542;2024-03-23T05:09:20;16.17;;;6.15;;
57107;SDS011;42987;52.916;6.542;2024-03-23T05:11:46;16.70;;;6.13;;
57107;SDS011;42987;52.916;6.542;2024-03-23T05:14:13;23.50;;;7.10;;
57107;SDS011;42987;52.916;6.542;2024-03-23T05:16:39;20.15;;;6.80;;
57107;SDS011;42987;52.916;6.542;2024-03-23T05:19:05;19.52;;;7.95;;
57107;SDS011;42987;52.916;6.542;2024-03-23T05:21:30;15.40;;;5.90;;
57107;SDS011;42987;52.916;6.542;2024-03-23T05:23:56;19.75;;;6.07;;
57107;SDS011;42987;52.916;6.542;2024-03-23T05:26:22;21.45;;;6.68;;
57107;SDS011;42987;52.916;6.542;2024-03-23T05:28:48;18.08;;;5.85;;
57107;SDS011;42987;52.916;6.542;2024-03-23T05:31:23;19.17;;;6.03;;
57107;SDS011;42987;52.916;6.542;2024-03-23T05:33:53;17.85;;;5.47;;
57107;SDS011;42987;52.916;6.542;2024-03-23T05:36:18;18.60;;;5.68;;
57107;SDS011;42987;52.916;6.542;2024-03-23T05:38:44;18.27;;;5.57;;
57107;SDS011;42987;52.916;6.542;2024-03-23T05:41:10;17.95;;;6.43;;
57107;SDS011;42987;52.916;6.542;2024-03-23T05:43:35;24.75;;;6.38;;
57107;SDS011;42987;52.916;6.542;2024-03-23T05:46:01;17.73;;;6.15;;
57107;SDS011;42987;52.916;6.542;2024-03-23T05:48:27;28.38;;;7.03;;
57107;SDS011;42987;52.916;6.542;2024-03-23T05:50:55;21.48;;;6.45;;
57107;SDS011;42987;52.916;6.542;2024-03-23T05:53:21;25.83;;;6.85;;
57107;SDS011;42987;52.916;6.542;2024-03-23T05:55:47;27.75;;;7.22;;
57107;SDS011;42987;52.916;6.542;2024-03-23T05:58:16;26.13;;;6.25;;
57107;SDS011;42987;52.916;6.542;2024-03-23T06:00:44;24.50;;;6.65;;
57107;SDS011;42987;52.916;6.542;2024-03-23T06:03:09;25.35;;;6.85;;
57107;SDS011;42987;52.916;6.542;2024-03-23T06:05:36;21.33;;;6.70;;
57107;SDS011;42987;52.916;6.542;2024-03-23T06:08:03;24.55;;;7.10;;
57107;SDS011;42987;52.916;6.542;2024-03-23T06:10:29;26.83;;;7.65;;
57107;SDS011;42987;52.916;6.542;2024-03-23T06:12:55;24.05;;;5.88;;
57107;SDS011;42987;52.916;6.542;2024-03-23T06:15:21;23.90;;;6.40;;
57107;SDS011;42987;52.916;6.542;2024-03-23T06:17:47;20.42;;;5.03;;
57107;SDS011;42987;52.916;6.542;2024-03-23T06:20:14;20.70;;;4.97;;
57107;SDS011;42987;52.916;6.542;2024-03-23T06:22:40;17.02;;;4.90;;
57107;SDS011;42987;52.916;6.542;2024-03-23T06:25:06;8.88;;;3.10;;
57107;SDS011;42987;52.916;6.542;2024-03-23T06:27:37;7.82;;;2.15;;
57107;SDS011;42987;52.916;6.542;2024-03-23T06:30:04;7.22;;;2.13;;
57107;SDS011;42987;52.916;6.542;2024-03-23T06:32:31;8.50;;;2.35;;
57107;SDS011;42987;52.916;6.542;2024-03-23T06:34:57;6.25;;;1.83;;
57107;SDS011;42987;52.916;6.542;2024-03-23T06:37:23;8.13;;;2.60;;
57107;SDS011;42987;52.916;6.542;2024-03-23T06:39:49;9.00;;;2.20;;
57107;SDS011;42987;52.916;6.542;2024-03-23T06:42:15;8.10;;;1.92;;
57107;SDS011;42987;52.916;6.542;2024-03-23T06:44:40;7.97;;;2.72;;
57107;SDS011;42987;52.916;6.542;2024-03-23T06:47:06;7.97;;;2.00;;
57107;SDS011;42987;52.916;6.542;2024-03-23T06:49:32;9.18;;;1.88;;
57107;SDS011;42987;52.916;6.542;2024-03-23T06:51:58;10.57;;;2.95;;
57107;SDS011;42987;52.916;6.542;2024-03-23T06:54:26;9.48;;;2.60;;
57107;SDS011;42987;52.916;6.542;2024-03-23T06:56:52;9.98;;;3.05;;
57107;SDS011;42987;52.916;6.542;2024-03-23T06:59:17;9.15;;;2.45;;
57107;SDS011;42987;52.916;6.542;2024-03-23T07:01:43;15.32;;;3.65;;
57107;SDS011;42987;52.916;6.542;2024-03-23T07:04:09;11.70;;;3.60;;
57107;SDS011;42987;52.916;6.542;2024-03-23T07:06:35;14.30;;;3.80;;
57107;SDS011;42987;52.916;6.542;2024-03-23T07:09:08;13.05;;;3.97;;
57107;SDS011;42987;52.916;6.542;2024-03-23T07:11:34;16.25;;;3.95;;
57107;SDS011;42987;52.916;6.542;2024-03-23T07:14:01;16.13;;;4.55;;
57107;SDS011;42987;52.916;6.542;2024-03-23T07:16:27;17.05;;;4.90;;
57107;SDS011;42987;52.916;6.542;2024-03-23T07:18:53;17.98;;;5.80;;
57107;SDS011;42987;52.916;6.542;2024-03-23T07:21:20;22.65;;;5.15;;
57107;SDS011;42987;52.916;6.542;2024-03-23T07:23:47;16.55;;;4.72;;
57107;SDS011;42987;52.916;6.542;2024-03-23T07:26:13;18.00;;;5.30;;
57107;SDS011;42987;52.916;6.542;2024-03-23T07:28:39;16.75;;;5.05;;
57107;SDS011;42987;52.916;6.542;2024-03-23T07:31:12;15.23;;;4.80;;
57107;SDS011;42987;52.916;6.542;2024-03-23T07:33:46;10.32;;;3.45;;
57107;SDS011;42987;52.916;6.542;2024-03-23T07:36:13;15.27;;;4.13;;
57107;SDS011;42987;52.916;6.542;2024-03-23T07:38:42;15.05;;;3.67;;
57107;SDS011;42987;52.916;6.542;2024-03-23T07:41:14;11.55;;;3.60;;
57107;SDS011;42987;52.916;6.542;2024-03-23T07:46:08;11.55;;;3.80;;
57107;SDS011;42987;52.916;6.542;2024-03-23T07:48:34;9.90;;;4.03;;
57107;SDS011;42987;52.916;6.542;2024-03-23T07:53:30;12.15;;;3.85;;
57107;SDS011;42987;52.916;6.542;2024-03-23T07:56:07;11.38;;;3.40;;
57107;SDS011;42987;52.916;6.542;2024-03-23T07:58:33;11.93;;;3.55;;
57107;SDS011;42987;52.916;6.542;2024-03-23T08:03:36;14.40;;;3.85;;
57107;SDS011;42987;52.916;6.542;2024-03-23T08:06:12;9.80;;;3.00;;
57107;SDS011;42987;52.916;6.542;2024-03-23T08:08:40;14.25;;;3.35;;
57107;SDS011;42987;52.916;6.542;2024-03-23T08:11:07;13.60;;;3.75;;
57107;SDS011;42987;52.916;6.542;2024-03-23T08:13:34;10.27;;;3.40;;
57107;SDS011;42987;52.916;6.542;2024-03-23T08:16:00;17.33;;;4.00;;
57107;SDS011;42987;52.916;6.542;2024-03-23T08:18:31;17.70;;;3.90;;
57107;SDS011;42987;52.916;6.542;2024-03-23T08:21:01;14.52;;;4.45;;
57107;SDS011;42987;52.916;6.542;2024-03-23T08:23:28;15.30;;;4.20;;
57107;SDS011;42987;52.916;6.542;2024-03-23T08:25:58;10.98;;;3.97;;
57107;SDS011;42987;52.916;6.542;2024-03-23T08:28:28;13.10;;;3.60;;
57107;SDS011;42987;52.916;6.542;2024-03-23T08:30:54;12.38;;;4.00;;
57107;SDS011;42987;52.916;6.542;2024-03-23T08:33:20;15.27;;;4.53;;
57107;SDS011;42987;52.916;6.542;2024-03-23T08:35:56;16.77;;;3.53;;
57107;SDS011;42987;52.916;6.542;2024-03-23T08:38:25;11.13;;;4.30;;
57107;SDS011;42987;52.916;6.542;2024-03-23T08:40:58;14.73;;;4.57;;
57107;SDS011;42987;52.916;6.542;2024-03-23T08:43:25;15.95;;;4.30;;
57107;SDS011;42987;52.916;6.542;2024-03-23T08:45:51;14.93;;;4.80;;
57107;SDS011;42987;52.916;6.542;2024-03-23T08:48:17;15.15;;;4.32;;
57107;SDS011;42987;52.916;6.542;2024-03-23T08:50:46;13.20;;;4.20;;
57107;SDS011;42987;52.916;6.542;2024-03-23T08:53:14;13.38;;;4.45;;
57107;SDS011;42987;52.916;6.542;2024-03-23T08:55:40;13.93;;;4.60;;
57107;SDS011;42987;52.916;6.542;2024-03-23T08:58:06;12.40;;;5.10;;
57107;SDS011;42987;52.916;6.542;2024-03-23T09:00:33;15.60;;;5.75;;
57107;SDS011;42987;52.916;6.542;2024-03-23T09:02:59;14.15;;;5.07;;
57107;SDS011;42987;52.916;6.542;2024-03-23T09:05:27;17.10;;;5.22;;
57107;SDS011;42987;52.916;6.542;2024-03-23T09:07:53;17.33;;;4.95;;
57107;SDS011;42987;52.916;6.542;2024-03-23T09:10:19;13.13;;;4.63;;
57107;SDS011;42987;52.916;6.542;2024-03-23T09:12:45;16.63;;;4.95;;
57107;SDS011;42987;52.916;6.542;2024-03-23T09:15:11;13.80;;;5.22;;
57107;SDS011;42987;52.916;6.542;2024-03-23T09:17:37;15.68;;;4.20;;
57107;SDS011;42987;52.916;6.542;2024-03-23T09:20:05;12.90;;;4.00;;
57107;SDS011;42987;52.916;6.542;2024-03-23T09:22:31;12.68;;;4.43;;
57107;SDS011;42987;52.916;6.542;2024-03-23T09:24:57;15.15;;;5.25;;
57107;SDS011;42987;52.916;6.542;2024-03-23T09:27:23;13.70;;;4.28;;
57107;SDS011;42987;52.916;6.542;2024-03-23T09:29:49;14.25;;;3.42;;
57107;SDS011;42987;52.916;6.542;2024-03-23T09:32:14;20.48;;;4.68;;
57107;SDS011;42987;52.916;6.542;2024-03-23T09:34:40;16.75;;;4.43;;
57107;SDS011;42987;52.916;6.542;2024-03-23T09:37:06;16.33;;;4.45;;
57107;SDS011;42987;52.916;6.542;2024-03-23T09:39:32;19.92;;;5.32;;
57107;SDS011;42987;52.916;6.542;2024-03-23T09:41:57;12.45;;;3.65;;
57107;SDS011;42987;52.916;6.542;2024-03-23T09:44:24;17.58;;;4.55;;
57107;SDS011;42987;52.916;6.542;2024-03-23T09:46:51;14.48;;;3.58;;
57107;SDS011;42987;52.916;6.542;2024-03-23T09:49:17;17.70;;;4.22;;
57107;SDS011;42987;52.916;6.542;2024-03-23T09:51:43;14.40;;;4.35;;
57107;SDS011;42987;52.916;6.542;2024-03-23T09:54:09;12.77;;;4.60;;
57107;SDS011;42987;52.916;6.542;2024-03-23T09:56:34;12.02;;;3.90;;
57107;SDS011;42987;52.916;6.542;2024-03-23T09:59:01;10.68;;;3.65;;
57107;SDS011;42987;52.916;6.542;2024-03-23T10:01:29;12.57;;;3.47;;
57107;SDS011;42987;52.916;6.542;2024-03-23T10:03:55;11.23;;;2.90;;
57107;SDS011;42987;52.916;6.542;2024-03-23T10:06:22;12.48;;;3.38;;
57107;SDS011;42987;52.916;6.542;2024-03-23T10:08:50;11.63;;;3.25;;
57107;SDS011;42987;52.916;6.542;2024-03-23T10:11:17;11.27;;;3.20;;
57107;SDS011;42987;52.916;6.542;2024-03-23T10:13:44;17.63;;;3.75;;
57107;SDS011;42987;52.916;6.542;2024-03-23T10:16:21;14.23;;;3.90;;
57107;SDS011;42987;52.916;6.542;2024-03-23T10:18:48;10.07;;;3.15;;
57107;SDS011;42987;52.916;6.542;2024-03-23T10:21:15;10.10;;;2.70;;
57107;SDS011;42987;52.916;6.542;2024-03-23T10:23:42;11.40;;;2.90;;
57107;SDS011;42987;52.916;6.542;2024-03-23T10:28:50;11.07;;;2.97;;
57107;SDS011;42987;52.916;6.542;2024-03-23T10:31:17;7.93;;;2.55;;
57107;SDS011;42987;52.916;6.542;2024-03-23T10:33:48;8.10;;;2.53;;
57107;SDS011;42987;52.916;6.542;2024-03-23T10:36:18;9.02;;;2.00;;
57107;SDS011;42987;52.916;6.542;2024-03-23T10:38:45;7.00;;;2.35;;
57107;SDS011;42987;52.916;6.542;2024-03-23T10:41:12;7.72;;;2.50;;
57107;SDS011;42987;52.916;6.542;2024-03-23T10:43:38;11.93;;;2.80;;
57107;SDS011;42987;52.916;6.542;2024-03-23T10:46:05;8.70;;;2.05;;
57107;SDS011;42987;52.916;6.542;2024-03-23T10:48:31;11.07;;;2.15;;
57107;SDS011;42987;52.916;6.542;2024-03-23T10:50:58;7.00;;;2.20;;
57107;SDS011;42987;52.916;6.542;2024-03-23T10:53:27;7.88;;;1.63;;
57107;SDS011;42987;52.916;6.542;2024-03-23T10:55:54;4.78;;;1.45;;
57107;SDS011;42987;52.916;6.542;2024-03-23T10:58:22;5.47;;;1.52;;
57107;SDS011;42987;52.916;6.542;2024-03-23T11:00:54;5.78;;;1.40;;
57107;SDS011;42987;52.916;6.542;2024-03-23T11:03:29;6.85;;;1.40;;
57107;SDS011;42987;52.916;6.542;2024-03-23T11:05:55;5.10;;;1.40;;
57107;SDS011;42987;52.916;6.542;2024-03-23T11:08:31;3.53;;;1.35;;
57107;SDS011;42987;52.916;6.542;2024-03-23T11:11:13;4.05;;;1.10;;
57107;SDS011;42987;52.916;6.542;2024-03-23T11:13:44;5.50;;;1.55;;
57107;SDS011;42987;52.916;6.542;2024-03-23T11:16:28;5.38;;;1.45;;
57107;SDS011;42987;52.916;6.542;2024-03-23T11:22:02;8.82;;;2.22;;
57107;SDS011;42987;52.916;6.542;2024-03-23T11:24:31;7.68;;;2.33;;
57107;SDS011;42987;52.916;6.542;2024-03-23T11:26:58;7.75;;;1.92;;
57107;SDS011;42987;52.916;6.542;2024-03-23T11:29:26;11.05;;;2.00;;
57107;SDS011;42987;52.916;6.542;2024-03-23T11:31:54;5.45;;;1.52;;
57107;SDS011;42987;52.916;6.542;2024-03-23T11:34:20;6.30;;;1.60;;
57107;SDS011;42987;52.916;6.542;2024-03-23T11:36:47;6.07;;;1.85;;
57107;SDS011;42987;52.916;6.542;2024-03-23T11:41:51;4.13;;;1.20;;
57107;SDS011;42987;52.916;6.542;2024-03-23T11:44:19;6.80;;;1.80;;
57107;SDS011;42987;52.916;6.542;2024-03-23T11:46:46;7.93;;;1.70;;
57107;SDS011;42987;52.916;6.542;2024-03-23T11:49:25;8.40;;;2.08;;
57107;SDS011;42987;52.916;6.542;2024-03-23T11:51:52;7.53;;;2.13;;
57107;SDS011;42987;52.916;6.542;2024-03-23T11:54:22;12.18;;;2.88;;
57107;SDS011;42987;52.916;6.542;2024-03-23T11:57:02;9.98;;;2.30;;
57107;SDS011;42987;52.916;6.542;2024-03-23T11:59:36;11.82;;;2.70;;
57107;SDS011;42987;52.916;6.542;2024-03-23T12:02:06;8.02;;;2.58;;
57107;SDS011;42987;52.916;6.542;2024-03-23T12:04:36;4.03;;;0.75;;
57107;SDS011;42987;52.916;6.542;2024-03-23T12:10:05;3.55;;;0.70;;
57107;SDS011;42987;52.916;6.542;2024-03-23T12:12:31;2.55;;;0.52;;
57107;SDS011;42987;52.916;6.542;2024-03-23T12:15:01;3.53;;;0.80;;
57107;SDS011;42987;52.916;6.542;2024-03-23T12:17:28;3.78;;;0.90;;
57107;SDS011;42987;52.916;6.542;2024-03-23T12:19:54;6.78;;;1.73;;
57107;SDS011;42987;52.916;6.542;2024-03-23T12:22:20;5.25;;;1.30;;
57107;SDS011;42987;52.916;6.542;2024-03-23T12:24:47;6.20;;;1.77;;
57107;SDS011;42987;52.916;6.542;2024-03-23T12:27:13;8.02;;;1.75;;
57107;SDS011;42987;52.916;6.542;2024-03-23T12:29:40;9.00;;;2.03;;
57107;SDS011;42987;52.916;6.542;2024-03-23T12:32:12;8.70;;;2.05;;
57107;SDS011;42987;52.916;6.542;2024-03-23T12:34:39;10.02;;;2.70;;
57107;SDS011;42987;52.916;6.542;2024-03-23T12:37:05;8.13;;;2.30;;
57107;SDS011;42987;52.916;6.542;2024-03-23T12:39:34;6.18;;;1.92;;
57107;SDS011;42987;52.916;6.542;2024-03-23T12:42:00;10.27;;;2.60;;
57107;SDS011;42987;52.916;6.542;2024-03-23T12:44:31;12.13;;;3.47;;
57107;SDS011;42987;52.916;6.542;2024-03-23T12:46:56;9.52;;;2.67;;
57107;SDS011;42987;52.916;6.542;2024-03-23T12:49:22;9.05;;;2.58;;
57107;SDS011;42987;52.916;6.542;2024-03-23T12:51:55;7.57;;;2.78;;
57107;SDS011;42987;52.916;6.542;2024-03-23T12:54:22;9.68;;;2.67;;
57107;SDS011;42987;52.916;6.542;2024-03-23T12:56:48;8.68;;;2.45;;
57107;SDS011;42987;52.916;6.542;2024-03-23T12:59:17;9.55;;;2.55;;
57107;SDS011;42987;52.916;6.542;2024-03-23T13:01:43;7.72;;;2.20;;
57107;SDS011;42987;52.916;6.542;2024-03-23T13:04:09;11.02;;;2.67;;
57107;SDS011;42987;52.916;6.542;2024-03-23T13:06:36;10.45;;;2.25;;
57107;SDS011;42987;52.916;6.542;2024-03-23T13:09:02;8.52;;;2.55;;
57107;SDS011;42987;52.916;6.542;2024-03-23T13:11:28;12.57;;;3.20;;
57107;SDS011;42987;52.916;6.542;2024-03-23T13:13:55;12.75;;;2.72;;
57107;SDS011;42987;52.916;6.542;2024-03-23T13:16:20;11.57;;;2.58;;
57107;SDS011;42987;52.916;6.542;2024-03-23T13:18:46;10.98;;;2.70;;
57107;SDS011;42987;52.916;6.542;2024-03-23T13:21:12;9.63;;;2.58;;
57107;SDS011;42987;52.916;6.542;2024-03-23T13:23:39;11.10;;;3.40;;
57107;SDS011;42987;52.916;6.542;2024-03-23T13:26:10;10.18;;;2.92;;
57107;SDS011;42987;52.916;6.542;2024-03-23T13:28:36;12.27;;;2.85;;
57107;SDS011;42987;52.916;6.542;2024-03-23T13:31:04;12.57;;;2.78;;
57107;SDS011;42987;52.916;6.542;2024-03-23T13:33:33;12.52;;;3.05;;
57107;SDS011;42987;52.916;6.542;2024-03-23T13:35:59;10.18;;;3.00;;
57107;SDS011;42987;52.916;6.542;2024-03-23T13:38:25;11.50;;;3.22;;
57107;SDS011;42987;52.916;6.542;2024-03-23T13:43:18;15.55;;;3.75;;
57107;SDS011;42987;52.916;6.542;2024-03-23T13:45:44;15.25;;;3.92;;
57107;SDS011;42987;52.916;6.542;2024-03-23T13:48:11;12.02;;;3.15;;
57107;SDS011;42987;52.916;6.542;2024-03-23T13:50:37;11.85;;;2.90;;
57107;SDS011;42987;52.916;6.542;2024-03-23T13:53:03;7.88;;;2.60;;
57107;SDS011;42987;52.916;6.542;2024-03-23T13:55:29;10.32;;;2.60;;
57107;SDS011;42987;52.916;6.542;2024-03-23T13:57:55;10.05;;;3.08;;
57107;SDS011;42987;52.916;6.542;2024-03-23T14:00:20;14.60;;;3.38;;
57107;SDS011;42987;52.916;6.542;2024-03-23T14:02:46;12.95;;;2.83;;
57107;SDS011;42987;52.916;6.542;2024-03-23T14:05:12;12.45;;;3.67;;
57107;SDS011;42987;52.916;6.542;2024-03-23T14:07:38;12.43;;;3.65;;
57107;SDS011;42987;52.916;6.542;2024-03-23T14:10:04;10.88;;;3.10;;
57107;SDS011;42987;52.916;6.542;2024-03-23T14:12:35;12.63;;;3.28;;
57107;SDS011;42987;52.916;6.542;2024-03-23T14:15:05;13.82;;;3.40;;
57107;SDS011;42987;52.916;6.542;2024-03-23T14:17:31;12.63;;;3.20;;
57107;SDS011;42987;52.916;6.542;2024-03-23T14:19:57;11.13;;;2.90;;
57107;SDS011;42987;52.916;6.542;2024-03-23T14:22:26;14.02;;;3.22;;
57107;SDS011;42987;52.916;6.542;2024-03-23T14:24:53;10.68;;;2.65;;
57107;SDS011;42987;52.916;6.542;2024-03-23T14:27:22;13.95;;;3.67;;
57107;SDS011;42987;52.916;6.542;2024-03-23T14:29:48;11.23;;;2.75;;
57107;SDS011;42987;52.916;6.542;2024-03-23T14:32:13;11.88;;;3.10;;
57107;SDS011;42987;52.916;6.542;2024-03-23T14:34:40;9.07;;;2.55;;
57107;SDS011;42987;52.916;6.542;2024-03-23T14:37:09;8.55;;;3.22;;
57107;SDS011;42987;52.916;6.542;2024-03-23T14:39:35;13.82;;;3.58;;
57107;SDS011;42987;52.916;6.542;2024-03-23T14:42:10;8.95;;;2.55;;
57107;SDS011;42987;52.916;6.542;2024-03-23T14:44:36;14.20;;;3.20;;
57107;SDS011;42987;52.916;6.542;2024-03-23T14:47:02;13.82;;;3.30;;
57107;SDS011;42987;52.916;6.542;2024-03-23T14:49:28;10.25;;;2.17;;
57107;SDS011;42987;52.916;6.542;2024-03-23T14:51:54;7.88;;;1.80;;
57107;SDS011;42987;52.916;6.542;2024-03-23T14:54:20;8.45;;;1.92;;
57107;SDS011;42987;52.916;6.542;2024-03-23T14:56:49;11.60;;;2.42;;
57107;SDS011;42987;52.916;6.542;2024-03-23T14:59:15;10.70;;;2.92;;
57107;SDS011;42987;52.916;6.542;2024-03-23T15:01:41;9.38;;;2.45;;
57107;SDS011;42987;52.916;6.542;2024-03-23T15:04:07;10.75;;;1.95;;
57107;SDS011;42987;52.916;6.542;2024-03-23T15:06:33;10.02;;;2.42;;
57107;SDS011;42987;52.916;6.542;2024-03-23T15:09:02;8.82;;;2.38;;
57107;SDS011;42987;52.916;6.542;2024-03-23T15:11:37;6.40;;;1.90;;
57107;SDS011;42987;52.916;6.542;2024-03-23T15:14:03;11.32;;;2.83;;
57107;SDS011;42987;52.916;6.542;2024-03-23T15:16:28;10.18;;;2.33;;
57107;SDS011;42987;52.916;6.542;2024-03-23T15:18:57;10.25;;;2.50;;
57107;SDS011;42987;52.916;6.542;2024-03-23T15:21:33;6.28;;;1.90;;
57107;SDS011;42987;52.916;6.542;2024-03-23T15:24:01;11.63;;;2.60;;
57107;SDS011;42987;52.916;6.542;2024-03-23T15:26:27;12.02;;;2.53;;
57107;SDS011;42987;52.916;6.542;2024-03-23T15:29:01;9.77;;;2.80;;
57107;SDS011;42987;52.916;6.542;2024-03-23T15:31:27;13.45;;;2.50;;
57107;SDS011;42987;52.916;6.542;2024-03-23T15:33:54;9.32;;;2.15;;
57107;SDS011;42987;52.916;6.542;2024-03-23T15:36:20;10.52;;;2.40;;
57107;SDS011;42987;52.916;6.542;2024-03-23T15:38:45;9.95;;;2.47;;
57107;SDS011;42987;52.916;6.542;2024-03-23T15:41:14;10.73;;;2.42;;
57107;SDS011;42987;52.916;6.542;2024-03-23T15:43:40;8.95;;;2.30;;
57107;SDS011;42987;52.916;6.542;2024-03-23T15:46:06;7.97;;;2.13;;
57107;SDS011;42987;52.916;6.542;2024-03-23T15:48:33;7.50;;;1.80;;
57107;SDS011;42987;52.916;6.542;2024-03-23T15:51:00;6.72;;;1.73;;
57107;SDS011;42987;52.916;6.542;2024-03-23T15:53:29;8.15;;;1.60;;